createdAt,value
2024-05-09T00:00:10.424Z,26.10
2024-05-09T00:01:08.591Z,26.06
2024-05-09T00:02:07.535Z,26.06
2024-05-09T00:03:08.870Z,26.08
2024-05-09T00:04:07.823Z,26.06
2024-05-09T00:05:07.922Z,26.08
2024-05-09T00:06:08.034Z,26.08
2024-05-09T00:07:07.883Z,26.05
2024-05-09T00:08:07.935Z,26.05
2024-05-09T00:09:07.982Z,26.06
2024-05-09T00:10:11.820Z,26.08
2024-05-09T00:11:09.158Z,26.06
2024-05-09T00:12:08.247Z,26.09
2024-05-09T00:13:08.444Z,26.05
2024-05-09T00:14:08.062Z,26.08
2024-05-09T00:15:08.014Z,26.05
2024-05-09T00:16:07.976Z,26.06
2024-05-09T00:17:08.020Z,26.03
2024-05-09T00:18:08.569Z,26.06
2024-05-09T00:19:08.064Z,26.05
2024-05-09T00:20:14.403Z,26.03
2024-05-09T00:21:09.332Z,26.03
2024-05-09T00:22:08.017Z,26.05
2024-05-09T00:23:08.317Z,26.05
2024-05-09T00:24:08.029Z,26.05
2024-05-09T00:25:08.009Z,26.08
2024-05-09T00:26:08.058Z,26.05
2024-05-09T00:27:09.031Z,26.05
2024-05-09T00:28:07.998Z,26.03
2024-05-09T00:29:08.071Z,26.03
2024-05-09T00:30:11.566Z,26.05
2024-05-09T00:31:09.012Z,26.06
2024-05-09T00:32:08.147Z,26.03
2024-05-09T00:33:09.614Z,26.03
2024-05-09T00:34:08.135Z,26.06
2024-05-09T00:35:08.157Z,26.03
2024-05-09T00:36:08.013Z,26.05
2024-05-09T00:37:08.015Z,26.06
2024-05-09T00:38:08.278Z,26.02
2024-05-09T00:39:08.008Z,26.05
2024-05-09T00:40:15.338Z,26.03
2024-05-09T00:41:09.098Z,26.02
2024-05-09T00:42:08.037Z,26.03
2024-05-09T00:43:08.034Z,26.06
2024-05-09T00:44:08.500Z,26.05
2024-05-09T00:45:08.017Z,26.03
2024-05-09T00:46:08.052Z,26.02
2024-05-09T00:47:08.274Z,26.03
2024-05-09T00:48:09.464Z,26.03
2024-05-09T00:49:08.239Z,26.03
2024-05-09T00:50:12.880Z,26.00
2024-05-09T00:51:09.221Z,26.02
2024-05-09T00:52:08.163Z,26.03
2024-05-09T00:53:08.293Z,26.00
2024-05-09T00:54:08.183Z,26.02
2024-05-09T00:55:08.181Z,26.02
2024-05-09T00:56:08.233Z,26.03
2024-05-09T00:57:08.155Z,26.00
2024-05-09T00:58:08.160Z,26.02
2024-05-09T00:59:08.217Z,26.00
2024-05-09T01:00:18.363Z,26.03
2024-05-09T01:01:09.231Z,26.05
2024-05-09T01:02:08.276Z,26.02
2024-05-09T01:03:09.248Z,26.00
2024-05-09T01:04:08.260Z,26.00
2024-05-09T01:05:08.271Z,26.02
2024-05-09T01:06:08.219Z,26.02
2024-05-09T01:07:08.243Z,26.02
2024-05-09T01:08:08.517Z,26.00
2024-05-09T01:09:08.181Z,26.00
2024-05-09T01:10:14.107Z,26.00
2024-05-09T01:11:09.302Z,25.99
2024-05-09T01:12:08.429Z,25.99
2024-05-09T01:13:08.203Z,26.00
2024-05-09T01:14:08.242Z,26.00
2024-05-09T01:15:08.180Z,26.00
2024-05-09T01:16:08.201Z,25.99
2024-05-09T01:17:08.267Z,26.00
2024-05-09T01:18:08.347Z,26.02
2024-05-09T01:19:08.268Z,26.03
2024-05-09T01:20:10.748Z,25.99
2024-05-09T01:21:09.255Z,25.99
2024-05-09T01:22:08.172Z,26.00
2024-05-09T01:23:08.397Z,26.00
2024-05-09T01:24:08.200Z,26.00
2024-05-09T01:25:08.201Z,25.98
2024-05-09T01:26:08.289Z,25.99
2024-05-09T01:27:08.180Z,25.99
2024-05-09T01:28:08.236Z,25.99
2024-05-09T01:29:08.251Z,26.00
2024-05-09T01:30:11.909Z,25.99
2024-05-09T01:31:09.234Z,25.99
2024-05-09T01:32:08.286Z,26.00
2024-05-09T01:33:10.195Z,25.96
2024-05-09T01:34:08.254Z,26.00
2024-05-09T01:35:08.250Z,25.99
2024-05-09T01:36:08.245Z,25.98
2024-05-09T01:37:08.221Z,25.99
2024-05-09T01:38:08.300Z,25.99
2024-05-09T01:39:08.209Z,25.98
2024-05-09T01:40:12.261Z,25.98
2024-05-09T01:41:09.337Z,25.96
2024-05-09T01:42:08.253Z,25.98
2024-05-09T01:43:09.459Z,25.99
2024-05-09T01:44:08.297Z,25.99
2024-05-09T01:45:08.223Z,25.96
2024-05-09T01:46:08.255Z,25.99
2024-05-09T01:47:08.416Z,25.96
2024-05-09T01:48:08.561Z,25.98
2024-05-09T01:49:08.405Z,25.98
2024-05-09T01:50:10.779Z,25.96
2024-05-09T01:51:08.462Z,25.96
2024-05-09T01:52:08.246Z,25.96
2024-05-09T01:53:08.425Z,25.96
2024-05-09T01:54:08.296Z,25.98
2024-05-09T01:55:08.260Z,25.95
2024-05-09T01:56:08.340Z,25.99
2024-05-09T01:57:08.270Z,25.96
2024-05-09T01:58:08.237Z,25.96
2024-05-09T01:59:08.338Z,25.95
2024-05-09T02:00:10.232Z,25.99
2024-05-09T02:01:08.292Z,25.96
2024-05-09T02:02:08.446Z,25.96
2024-05-09T02:03:08.528Z,25.98
2024-05-09T02:04:08.471Z,25.96
2024-05-09T02:05:08.405Z,25.95
2024-05-09T02:06:08.472Z,25.96
2024-05-09T02:07:08.275Z,25.98
2024-05-09T02:08:08.361Z,25.93
2024-05-09T02:09:08.296Z,25.93
2024-05-09T02:10:16.117Z,25.95
2024-05-09T02:11:09.393Z,25.95
2024-05-09T02:12:08.485Z,25.96
2024-05-09T02:13:08.287Z,25.98
2024-05-09T02:14:08.326Z,25.95
2024-05-09T02:15:08.332Z,25.95
2024-05-09T02:16:08.279Z,25.93
2024-05-09T02:17:08.414Z,25.92
2024-05-09T02:18:08.627Z,25.93
2024-05-09T02:19:08.445Z,25.93
2024-05-09T02:20:13.138Z,25.93
2024-05-09T02:21:09.325Z,25.93
2024-05-09T02:22:08.344Z,25.96
2024-05-09T02:23:08.454Z,25.95
2024-05-09T02:24:08.297Z,25.95
2024-05-09T02:25:08.296Z,25.95
2024-05-09T02:26:08.357Z,25.95
2024-05-09T02:27:08.280Z,25.93
2024-05-09T02:28:08.330Z,25.93
2024-05-09T02:29:08.357Z,25.93
2024-05-09T02:30:18.280Z,25.93
2024-05-09T02:31:09.310Z,25.95
2024-05-09T02:32:08.415Z,25.92
2024-05-09T02:33:09.245Z,25.93
2024-05-09T02:34:08.417Z,25.92
2024-05-09T02:35:08.610Z,25.92
2024-05-09T02:36:08.321Z,25.92
2024-05-09T02:37:08.295Z,25.92
2024-05-09T02:38:08.301Z,25.93
2024-05-09T02:39:08.297Z,25.93
2024-05-09T02:40:11.722Z,25.91
2024-05-09T02:41:09.404Z,25.92
2024-05-09T02:42:08.316Z,25.92
2024-05-09T02:43:09.778Z,25.93
2024-05-09T02:44:08.551Z,25.93
2024-05-09T02:45:08.545Z,25.91
2024-05-09T02:46:08.546Z,25.92
2024-05-09T02:47:08.651Z,25.91
2024-05-09T02:48:08.642Z,25.92
2024-05-09T02:49:08.694Z,25.92
2024-05-09T02:50:08.669Z,25.92
2024-05-09T02:51:08.724Z,25.91
2024-05-09T02:52:08.586Z,25.91
2024-05-09T02:53:09.500Z,25.88
2024-05-09T02:54:08.623Z,25.91
2024-05-09T02:55:08.618Z,25.91
2024-05-09T02:56:08.678Z,25.89
2024-05-09T02:57:08.653Z,25.91
2024-05-09T02:58:08.653Z,25.91
2024-05-09T02:59:08.665Z,25.89
2024-05-09T03:00:15.178Z,25.91
2024-05-09T03:01:09.743Z,25.91
2024-05-09T03:02:08.711Z,25.91
2024-05-09T03:03:10.330Z,25.91
2024-05-09T03:04:08.797Z,25.91
2024-05-09T03:05:08.713Z,25.91
2024-05-09T03:06:08.682Z,25.91
2024-05-09T03:07:08.682Z,25.91
2024-05-09T03:08:08.907Z,25.89
2024-05-09T03:09:08.712Z,25.91
2024-05-09T03:10:18.148Z,25.89
2024-05-09T03:11:09.799Z,25.89
2024-05-09T03:12:08.742Z,25.89
2024-05-09T03:13:09.094Z,25.89
2024-05-09T03:14:08.724Z,25.88
2024-05-09T03:15:08.698Z,25.91
2024-05-09T03:16:08.709Z,25.89
2024-05-09T03:17:08.802Z,25.88
2024-05-09T03:18:08.913Z,25.88
2024-05-09T03:19:08.850Z,25.88
2024-05-09T03:20:17.282Z,25.89
2024-05-09T03:21:09.840Z,25.88
2024-05-09T03:22:08.734Z,25.89
2024-05-09T03:23:09.852Z,25.89
2024-05-09T03:24:08.709Z,25.88
2024-05-09T03:25:08.712Z,25.91
2024-05-09T03:26:08.775Z,25.88
2024-05-09T03:27:08.722Z,25.92
2024-05-09T03:28:08.722Z,25.89
2024-05-09T03:29:08.761Z,25.89
2024-05-09T03:30:09.851Z,25.88
2024-05-09T03:31:08.718Z,25.89
2024-05-09T03:32:08.834Z,25.88
2024-05-09T03:33:09.018Z,25.89
2024-05-09T03:34:08.879Z,25.88
2024-05-09T03:35:08.723Z,25.89
2024-05-09T03:36:11.210Z,25.86
2024-05-09T03:37:08.751Z,25.89
2024-05-09T03:38:08.957Z,25.86
2024-05-09T03:39:08.772Z,25.88
2024-05-09T03:40:14.501Z,25.85
2024-05-09T03:41:09.797Z,25.86
2024-05-09T03:42:08.719Z,25.89
2024-05-09T03:43:08.735Z,25.85
2024-05-09T03:44:08.767Z,25.88
2024-05-09T03:45:08.752Z,25.86
2024-05-09T03:46:08.751Z,25.86
2024-05-09T03:47:08.797Z,25.85
2024-05-09T03:48:09.115Z,25.88
2024-05-09T03:49:08.908Z,25.86
2024-05-09T03:50:15.178Z,25.88
2024-05-09T03:51:09.884Z,25.88
2024-05-09T03:52:08.763Z,25.88
2024-05-09T03:53:08.780Z,25.86
2024-05-09T03:54:08.777Z,25.85
2024-05-09T03:55:08.775Z,25.86
2024-05-09T03:56:08.817Z,25.86
2024-05-09T03:57:08.730Z,25.86
2024-05-09T03:58:08.771Z,25.85
2024-05-09T03:59:08.793Z,25.85
2024-05-09T04:00:17.738Z,25.88
2024-05-09T04:01:09.812Z,25.85
2024-05-09T04:02:08.891Z,25.86
2024-05-09T04:03:11.292Z,25.84
2024-05-09T04:04:08.940Z,25.86
2024-05-09T04:05:08.823Z,25.86
2024-05-09T04:06:08.808Z,25.86
2024-05-09T04:07:08.761Z,25.84
2024-05-09T04:08:08.888Z,25.85
2024-05-09T04:09:08.769Z,25.84
2024-05-09T04:10:11.293Z,25.88
2024-05-09T04:11:09.927Z,25.85
2024-05-09T04:12:08.818Z,25.88
2024-05-09T04:13:08.801Z,25.86
2024-05-09T04:14:08.793Z,25.85
2024-05-09T04:15:12.146Z,25.85
2024-05-09T04:16:08.751Z,25.85
2024-05-09T04:17:08.935Z,25.84
2024-05-09T04:18:08.907Z,25.86
2024-05-09T04:19:08.846Z,25.86
2024-05-09T04:20:12.418Z,25.82
2024-05-09T04:21:09.918Z,25.82
2024-05-09T04:22:08.806Z,25.86
2024-05-09T04:23:09.551Z,25.85
2024-05-09T04:24:08.767Z,25.84
2024-05-09T04:25:08.776Z,25.82
2024-05-09T04:26:08.834Z,25.84
2024-05-09T04:27:08.784Z,25.84
2024-05-09T04:28:08.792Z,25.82
2024-05-09T04:29:08.769Z,25.82
2024-05-09T04:30:15.312Z,25.84
2024-05-09T04:31:09.835Z,25.82
2024-05-09T04:32:08.902Z,25.82
2024-05-09T04:33:11.309Z,25.81
2024-05-09T04:34:09.003Z,25.82
2024-05-09T04:35:08.853Z,25.81
2024-05-09T04:36:08.846Z,25.82
2024-05-09T04:37:08.792Z,25.82
2024-05-09T04:38:08.846Z,25.81
2024-05-09T04:39:16.086Z,25.81
2024-05-09T04:40:24.287Z,25.82
2024-05-09T04:41:17.102Z,25.79
2024-05-09T04:42:16.109Z,25.85
2024-05-09T04:43:16.225Z,25.84
2024-05-09T04:44:16.170Z,25.82
2024-05-09T04:45:16.128Z,25.82
2024-05-09T04:46:16.148Z,25.81
2024-05-09T04:47:16.203Z,25.82
2024-05-09T04:48:16.498Z,25.84
2024-05-09T04:49:16.212Z,25.85
2024-05-09T04:50:25.211Z,25.82
2024-05-09T04:51:17.193Z,25.84
2024-05-09T04:52:16.120Z,25.84
2024-05-09T04:53:16.285Z,25.81
2024-05-09T04:54:26.314Z,25.85
2024-05-09T04:55:17.167Z,25.84
2024-05-09T04:56:16.182Z,25.82
2024-05-09T04:57:16.174Z,25.86
2024-05-09T04:58:16.177Z,25.84
2024-05-09T04:59:16.184Z,25.84
2024-05-09T05:00:21.979Z,25.82
2024-05-09T05:01:17.240Z,25.85
2024-05-09T05:02:16.207Z,25.84
2024-05-09T05:03:16.905Z,25.85
2024-05-09T05:04:16.284Z,25.84
2024-05-09T05:05:16.441Z,25.84
2024-05-09T05:06:16.163Z,25.85
2024-05-09T05:07:16.129Z,25.84
2024-05-09T05:08:17.158Z,25.85
2024-05-09T05:09:16.128Z,25.82
2024-05-09T05:10:21.693Z,25.86
2024-05-09T05:11:17.384Z,25.85
2024-05-09T05:12:16.281Z,25.82
2024-05-09T05:13:16.167Z,25.85
2024-05-09T05:14:16.195Z,25.82
2024-05-09T05:15:16.175Z,25.85
2024-05-09T05:16:16.177Z,25.84
2024-05-09T05:17:16.183Z,25.85
2024-05-09T05:18:16.521Z,25.84
2024-05-09T05:19:17.747Z,25.86
2024-05-09T05:20:26.944Z,25.85
2024-05-09T05:21:17.181Z,25.88
2024-05-09T05:22:16.175Z,25.85
2024-05-09T05:23:16.603Z,25.88
2024-05-09T05:24:16.177Z,25.85
2024-05-09T05:25:16.143Z,25.85
2024-05-09T05:26:16.180Z,25.85
2024-05-09T05:27:16.157Z,25.86
2024-05-09T05:28:16.186Z,25.86
2024-05-09T05:29:18.596Z,25.84
2024-05-09T05:30:21.438Z,25.86
2024-05-09T05:31:17.179Z,25.86
2024-05-09T05:32:16.403Z,25.86
2024-05-09T05:33:16.382Z,25.85
2024-05-09T05:34:16.206Z,25.91
2024-05-09T05:35:16.236Z,25.88
2024-05-09T05:36:16.157Z,25.88
2024-05-09T05:37:16.175Z,25.88
2024-05-09T05:38:16.253Z,25.89
2024-05-09T05:39:16.187Z,25.86
2024-05-09T05:40:25.306Z,25.91
2024-05-09T05:41:17.236Z,25.86
2024-05-09T05:42:16.173Z,25.91
2024-05-09T05:43:16.235Z,25.88
2024-05-09T05:44:16.240Z,25.89
2024-05-09T05:45:16.179Z,25.89
2024-05-09T05:46:16.186Z,25.89
2024-05-09T05:47:16.305Z,25.89
2024-05-09T05:48:16.687Z,25.91
2024-05-09T05:49:16.369Z,25.91
2024-05-09T05:50:24.593Z,25.89
2024-05-09T05:51:17.419Z,25.89
2024-05-09T05:52:16.186Z,25.89
2024-05-09T05:53:16.393Z,25.89
2024-05-09T05:54:16.176Z,25.91
2024-05-09T05:55:16.221Z,25.88
2024-05-09T05:56:16.202Z,25.89
2024-05-09T05:57:16.201Z,25.92
2024-05-09T05:58:16.215Z,25.91
2024-05-09T05:59:16.330Z,25.91
2024-05-09T06:00:25.970Z,25.92
2024-05-09T06:01:17.277Z,25.92
2024-05-09T06:02:16.317Z,25.91
2024-05-09T06:03:16.422Z,25.92
2024-05-09T06:04:16.232Z,25.91
2024-05-09T06:05:16.250Z,25.93
2024-05-09T06:06:16.214Z,25.93
2024-05-09T06:07:16.226Z,25.92
2024-05-09T06:08:16.296Z,25.95
2024-05-09T06:09:16.199Z,25.95
2024-05-09T06:10:21.487Z,25.93
2024-05-09T06:11:17.282Z,25.92
2024-05-09T06:12:16.366Z,25.92
2024-05-09T06:13:16.234Z,25.93
2024-05-09T06:14:16.253Z,25.96
2024-05-09T06:15:16.226Z,25.96
2024-05-09T06:16:16.234Z,25.98
2024-05-09T06:17:16.312Z,25.93
2024-05-09T06:18:16.341Z,25.96
2024-05-09T06:19:16.344Z,25.99
2024-05-09T06:20:20.818Z,25.96
2024-05-09T06:21:17.523Z,26.00
2024-05-09T06:22:16.226Z,26.00
2024-05-09T06:23:16.242Z,26.03
2024-05-09T06:24:16.235Z,26.05
2024-05-09T06:25:16.246Z,26.03
2024-05-09T06:26:16.302Z,26.08
2024-05-09T06:27:16.272Z,26.06
2024-05-09T06:28:16.285Z,26.08
2024-05-09T06:29:16.366Z,26.08
2024-05-09T06:30:25.709Z,26.09
2024-05-09T06:31:17.262Z,26.09
2024-05-09T06:32:16.414Z,26.09
2024-05-09T06:33:16.922Z,26.09
2024-05-09T06:34:16.443Z,26.10
2024-05-09T06:35:16.291Z,26.10
2024-05-09T06:36:16.277Z,26.09
2024-05-09T06:37:16.288Z,26.09
2024-05-09T06:38:16.285Z,26.09
2024-05-09T06:39:16.253Z,26.12
2024-05-09T06:40:21.408Z,26.09
2024-05-09T06:41:17.336Z,26.13
2024-05-09T06:42:16.252Z,26.13
2024-05-09T06:43:18.292Z,26.13
2024-05-09T06:44:16.326Z,26.13
2024-05-09T06:45:16.244Z,26.15
2024-05-09T06:46:16.306Z,26.16
2024-05-09T06:47:16.355Z,26.16
2024-05-09T06:48:16.349Z,26.15
2024-05-09T06:49:16.401Z,26.16
2024-05-09T06:50:23.428Z,26.16
2024-05-09T06:51:17.493Z,26.15
2024-05-09T06:52:16.279Z,26.16
2024-05-09T06:53:16.360Z,26.18
2024-05-09T06:54:16.315Z,26.18
2024-05-09T06:55:16.289Z,26.18
2024-05-09T06:56:16.416Z,26.19
2024-05-09T06:57:16.261Z,26.19
2024-05-09T06:58:16.314Z,26.19
2024-05-09T06:59:16.295Z,26.20
2024-05-09T07:00:23.041Z,26.20
2024-05-09T07:01:17.321Z,26.19
2024-05-09T07:02:16.394Z,26.19
2024-05-09T07:03:18.327Z,26.19
2024-05-09T07:04:16.389Z,26.20
2024-05-09T07:05:16.351Z,26.22
2024-05-09T07:06:16.795Z,26.22
2024-05-09T07:07:16.304Z,26.22
2024-05-09T07:08:16.498Z,26.23
2024-05-09T07:09:16.298Z,26.22
2024-05-09T07:10:22.107Z,26.23
2024-05-09T07:11:17.412Z,26.23
2024-05-09T07:12:16.474Z,26.23
2024-05-09T07:13:16.321Z,26.23
2024-05-09T07:14:16.453Z,26.25
2024-05-09T07:15:16.379Z,26.25
2024-05-09T07:16:16.409Z,26.26
2024-05-09T07:17:16.532Z,26.25
2024-05-09T07:18:18.173Z,26.26
2024-05-09T07:19:16.499Z,26.26
2024-05-09T07:20:23.547Z,26.29
2024-05-09T07:21:17.420Z,26.29
2024-05-09T07:22:16.337Z,26.30
2024-05-09T07:23:16.551Z,26.29
2024-05-09T07:24:16.341Z,26.26
2024-05-09T07:25:16.350Z,26.32
2024-05-09T07:26:16.457Z,26.32
2024-05-09T07:27:16.319Z,26.33
2024-05-09T07:28:16.811Z,26.30
2024-05-09T07:29:16.436Z,26.33
2024-05-09T07:30:23.507Z,26.35
2024-05-09T07:31:17.475Z,26.33
2024-05-09T07:32:16.572Z,26.33
2024-05-09T07:33:16.596Z,26.33
2024-05-09T07:34:16.597Z,26.33
2024-05-09T07:35:16.517Z,26.38
2024-05-09T07:36:16.568Z,26.36
2024-05-09T07:37:16.460Z,26.38
2024-05-09T07:38:16.571Z,26.40
2024-05-09T07:39:16.504Z,26.39
2024-05-09T07:40:24.960Z,26.39
2024-05-09T07:41:17.622Z,26.39
2024-05-09T07:42:16.583Z,26.39
2024-05-09T07:43:16.699Z,26.40
2024-05-09T07:44:16.640Z,26.40
2024-05-09T07:45:39.101Z,26.40
2024-05-09T07:47:14.259Z,26.40
2024-05-09T07:48:28.988Z,26.43
2024-05-09T07:53:29.961Z,26.46
2024-05-09T07:53:38.126Z,26.44
2024-05-09T07:54:18.043Z,26.49
2024-05-09T07:55:16.881Z,26.49
2024-05-09T07:56:16.988Z,26.47
2024-05-09T07:57:16.804Z,26.46
2024-05-09T07:58:16.743Z,26.50
2024-05-09T07:59:16.740Z,26.49
2024-05-09T08:00:23.512Z,26.47
2024-05-09T08:01:17.909Z,26.49
2024-05-09T08:02:16.955Z,26.50
2024-05-09T08:03:16.753Z,26.50
2024-05-09T08:04:16.775Z,26.53
2024-05-09T08:05:17.009Z,26.52
2024-05-09T08:06:16.735Z,26.50
2024-05-09T08:07:16.776Z,26.50
2024-05-09T08:08:16.767Z,26.50
2024-05-09T08:09:20.609Z,26.53
2024-05-09T08:10:22.042Z,26.54
2024-05-09T08:11:17.811Z,26.54
2024-05-09T08:12:16.757Z,26.53
2024-05-09T08:13:16.831Z,26.56
2024-05-09T08:14:16.738Z,26.57
2024-05-09T08:15:16.826Z,26.56
2024-05-09T08:16:16.801Z,26.57
2024-05-09T08:17:16.782Z,26.57
2024-05-09T08:18:16.793Z,26.60
2024-05-09T08:19:16.828Z,26.62
2024-05-09T08:20:26.514Z,26.62
2024-05-09T08:21:17.767Z,26.62
2024-05-09T08:22:16.794Z,26.62
2024-05-09T08:23:16.765Z,26.63
2024-05-09T08:24:16.755Z,26.64
2024-05-09T08:25:16.788Z,26.66
2024-05-09T08:26:16.804Z,26.63
2024-05-09T08:27:16.743Z,26.66
2024-05-09T08:28:16.806Z,26.64
2024-05-09T08:29:16.787Z,26.67
2024-05-09T08:30:24.612Z,26.66
2024-05-09T08:31:17.887Z,26.67
2024-05-09T08:32:16.802Z,26.66
2024-05-09T08:33:16.898Z,26.67
2024-05-09T08:34:16.942Z,26.67
2024-05-09T08:35:16.790Z,26.64
2024-05-09T08:36:16.798Z,26.69
2024-05-09T08:37:22.441Z,26.66
2024-05-09T08:38:17.778Z,26.67
2024-05-09T08:39:16.767Z,26.67
2024-05-09T08:40:23.977Z,26.66
2024-05-09T08:41:17.803Z,26.70
2024-05-09T08:42:16.772Z,26.69
2024-05-09T08:43:16.908Z,26.67
2024-05-09T08:44:16.787Z,26.69
2024-05-09T08:45:16.825Z,26.70
2024-05-09T08:46:16.840Z,26.72
2024-05-09T08:47:16.834Z,26.72
2024-05-09T08:48:17.023Z,26.70
2024-05-09T08:49:16.873Z,26.69
2024-05-09T08:50:28.707Z,26.73
2024-05-09T08:51:17.791Z,26.73
2024-05-09T08:52:16.804Z,26.74
2024-05-09T08:53:16.777Z,26.72
2024-05-09T08:54:16.798Z,26.73
2024-05-09T08:55:16.812Z,26.73
2024-05-09T08:56:16.802Z,26.74
2024-05-09T08:57:16.794Z,26.76
2024-05-09T08:58:17.226Z,26.76
2024-05-09T08:59:16.794Z,26.77
2024-05-09T09:00:25.597Z,26.74
2024-05-09T09:01:17.919Z,26.76
2024-05-09T09:02:16.990Z,26.74
2024-05-09T09:03:16.890Z,26.76
2024-05-09T09:04:16.940Z,26.74
2024-05-09T09:05:17.006Z,26.74
2024-05-09T09:06:16.807Z,26.77
2024-05-09T09:07:16.869Z,26.73
2024-05-09T09:08:16.792Z,26.74
2024-05-09T09:09:16.822Z,26.74
2024-05-09T09:10:25.376Z,26.74
2024-05-09T09:11:17.854Z,26.77
2024-05-09T09:12:16.828Z,26.79
2024-05-09T09:13:16.953Z,26.77
2024-05-09T09:14:16.821Z,26.77
2024-05-09T09:15:16.800Z,26.76
2024-05-09T09:16:16.963Z,26.77
2024-05-09T09:17:16.931Z,26.77
2024-05-09T09:18:16.946Z,26.79
2024-05-09T09:19:17.047Z,26.80
2024-05-09T09:20:23.206Z,26.77
2024-05-09T09:21:17.866Z,26.79
2024-05-09T09:22:16.955Z,26.79
2024-05-09T09:23:16.805Z,26.79
2024-05-09T09:24:16.838Z,26.80
2024-05-09T09:25:16.858Z,26.82
2024-05-09T09:26:16.854Z,26.82
2024-05-09T09:27:16.856Z,26.83
2024-05-09T09:28:16.935Z,26.83
2024-05-09T09:29:16.874Z,26.83
2024-05-09T09:30:30.868Z,26.83
2024-05-09T09:31:17.881Z,26.84
2024-05-09T09:32:16.943Z,26.84
2024-05-09T09:33:16.963Z,26.86
2024-05-09T09:34:16.972Z,26.86
2024-05-09T09:35:16.883Z,26.87
2024-05-09T09:36:16.839Z,26.86
2024-05-09T09:37:16.875Z,26.83
2024-05-09T09:38:16.860Z,26.84
2024-05-09T09:39:16.841Z,26.86
2024-05-09T09:40:18.432Z,26.84
2024-05-09T09:41:16.958Z,26.89
2024-05-09T09:42:16.851Z,26.87
2024-05-09T09:43:16.897Z,26.89
2024-05-09T09:44:16.835Z,26.86
2024-05-09T09:45:16.861Z,26.87
2024-05-09T09:46:16.985Z,26.86
2024-05-09T09:47:16.934Z,26.84
2024-05-09T09:48:17.051Z,26.89
2024-05-09T09:49:17.116Z,26.89
2024-05-09T09:50:20.879Z,26.89
2024-05-09T09:51:17.867Z,26.89
2024-05-09T09:52:17.103Z,26.87
2024-05-09T09:53:16.912Z,26.89
2024-05-09T09:54:16.883Z,26.87
2024-05-09T09:55:16.896Z,26.89
2024-05-09T09:56:16.849Z,26.89
2024-05-09T09:57:16.886Z,26.87
2024-05-09T09:58:17.084Z,26.87
2024-05-09T09:59:16.904Z,26.86
2024-05-09T10:00:24.039Z,26.86
2024-05-09T10:01:17.986Z,26.89
2024-05-09T10:02:17.041Z,26.90
2024-05-09T10:03:16.965Z,26.89
2024-05-09T10:04:17.121Z,26.87
2024-05-09T10:05:16.998Z,26.89
2024-05-09T10:06:16.911Z,26.89
2024-05-09T10:07:16.918Z,26.90
2024-05-09T10:08:16.906Z,26.89
2024-05-09T10:09:16.876Z,26.91
2024-05-09T10:10:22.956Z,26.87
2024-05-09T10:11:17.937Z,26.91
2024-05-09T10:12:16.924Z,26.91
2024-05-09T10:13:16.968Z,26.93
2024-05-09T10:14:16.888Z,26.91
2024-05-09T10:15:16.874Z,26.91
2024-05-09T10:16:16.946Z,26.89
2024-05-09T10:17:16.953Z,26.90
2024-05-09T10:18:17.074Z,26.90
2024-05-09T10:19:16.958Z,26.91
2024-05-09T10:20:21.932Z,26.90
2024-05-09T10:21:17.885Z,26.91
2024-05-09T10:22:16.937Z,26.90
2024-05-09T10:23:16.900Z,26.91
2024-05-09T10:24:16.969Z,26.94
2024-05-09T10:25:17.118Z,26.91
2024-05-09T10:26:16.907Z,26.91
2024-05-09T10:27:16.898Z,26.91
2024-05-09T10:28:17.005Z,26.94
2024-05-09T10:29:16.934Z,26.91
2024-05-09T10:30:25.774Z,26.93
2024-05-09T10:31:18.013Z,26.91
2024-05-09T10:32:16.956Z,26.93
2024-05-09T10:33:17.007Z,26.94
2024-05-09T10:34:17.012Z,26.94
2024-05-09T10:35:16.940Z,26.97
2024-05-09T10:36:16.927Z,26.97
2024-05-09T10:37:17.065Z,26.98
2024-05-09T10:38:16.914Z,27.00
2024-05-09T10:39:16.910Z,26.95
2024-05-09T10:40:23.486Z,26.94
2024-05-09T10:41:17.922Z,26.97
2024-05-09T10:42:16.937Z,26.97
2024-05-09T10:43:17.004Z,27.00
2024-05-09T10:44:16.948Z,26.97
2024-05-09T10:45:16.976Z,26.98
2024-05-09T10:46:17.108Z,26.98
2024-05-09T10:47:16.975Z,26.98
2024-05-09T10:48:17.020Z,27.03
2024-05-09T10:49:17.084Z,27.03
2024-05-09T10:50:22.661Z,27.01
2024-05-09T10:51:17.939Z,27.01
2024-05-09T10:52:16.980Z,27.03
2024-05-09T10:53:16.935Z,27.04
2024-05-09T10:54:16.934Z,27.04
2024-05-09T10:55:17.051Z,27.05
2024-05-09T10:56:17.210Z,27.03
2024-05-09T10:57:16.972Z,27.04
2024-05-09T10:58:17.096Z,27.05
2024-05-09T10:59:16.939Z,27.04
2024-05-09T11:00:27.043Z,27.05
2024-05-09T11:01:18.015Z,27.08
2024-05-09T11:02:17.064Z,27.05
2024-05-09T11:03:17.029Z,27.07
2024-05-09T11:04:17.225Z,27.08
2024-05-09T11:05:17.180Z,27.07
2024-05-09T11:06:17.042Z,27.08
2024-05-09T11:07:17.025Z,27.10
2024-05-09T11:08:16.968Z,27.08
2024-05-09T11:09:16.980Z,27.10
2024-05-09T11:10:24.858Z,27.10
2024-05-09T11:11:18.020Z,27.08
2024-05-09T11:12:16.965Z,27.14
2024-05-09T11:13:17.011Z,27.10
2024-05-09T11:14:16.988Z,27.11
2024-05-09T11:15:16.992Z,27.11
2024-05-09T11:16:17.416Z,27.13
2024-05-09T11:17:17.002Z,27.10
2024-05-09T11:18:17.130Z,27.13
2024-05-09T11:19:17.137Z,27.14
2024-05-09T11:20:23.232Z,27.14
2024-05-09T11:21:17.976Z,27.13
2024-05-09T11:22:17.011Z,27.14
2024-05-09T11:23:16.964Z,27.13
2024-05-09T11:24:16.983Z,27.15
2024-05-09T11:25:17.061Z,27.17
2024-05-09T11:26:16.980Z,27.14
2024-05-09T11:27:16.995Z,27.17
2024-05-09T11:28:17.161Z,27.14
2024-05-09T11:29:19.521Z,27.17
2024-05-09T11:30:24.204Z,27.15
2024-05-09T11:31:18.135Z,27.15
2024-05-09T11:32:17.049Z,27.20
2024-05-09T11:33:17.052Z,27.20
2024-05-09T11:34:17.074Z,27.18
2024-05-09T11:35:17.046Z,27.20
2024-05-09T11:36:17.016Z,27.21
2024-05-09T11:37:17.095Z,27.24
2024-05-09T11:38:17.025Z,27.24
2024-05-09T11:39:17.027Z,27.23
2024-05-09T11:40:24.841Z,27.24
2024-05-09T11:41:17.980Z,27.24
2024-05-09T11:42:17.003Z,27.24
2024-05-09T11:43:17.105Z,27.24
2024-05-09T11:44:17.047Z,27.25
2024-05-09T11:45:17.110Z,27.25
2024-05-09T11:46:17.238Z,27.28
2024-05-09T11:47:17.044Z,27.25
2024-05-09T11:48:17.132Z,27.28
2024-05-09T11:49:17.135Z,27.28
2024-05-09T11:50:26.729Z,27.28
2024-05-09T11:51:17.999Z,27.27
2024-05-09T11:52:17.151Z,27.30
2024-05-09T11:53:17.041Z,27.31
2024-05-09T11:54:17.036Z,27.31
2024-05-09T11:55:17.120Z,27.31
2024-05-09T11:56:17.001Z,27.33
2024-05-09T11:57:16.988Z,27.33
2024-05-09T11:58:17.484Z,27.33
2024-05-09T11:59:17.015Z,27.31
2024-05-09T12:00:24.883Z,27.31
2024-05-09T12:01:18.096Z,27.33
2024-05-09T12:02:17.216Z,27.30
2024-05-09T12:03:17.062Z,27.33
2024-05-09T12:04:17.187Z,27.33
2024-05-09T12:05:17.269Z,27.34
2024-05-09T12:06:17.073Z,27.31
2024-05-09T12:07:17.136Z,27.34
2024-05-09T12:08:17.044Z,27.35
2024-05-09T12:09:17.034Z,27.34
2024-05-09T12:10:22.314Z,27.35
2024-05-09T12:11:18.098Z,27.34
2024-05-09T12:12:17.052Z,27.35
2024-05-09T12:13:17.100Z,27.37
2024-05-09T12:14:17.052Z,27.37
2024-05-09T12:15:17.240Z,27.37
2024-05-09T12:16:17.248Z,27.38
2024-05-09T12:17:17.070Z,27.37
2024-05-09T12:18:17.059Z,27.40
2024-05-09T12:19:17.135Z,27.40
2024-05-09T12:20:25.151Z,27.40
2024-05-09T12:21:18.051Z,27.40
2024-05-09T12:22:17.162Z,27.40
2024-05-09T12:23:17.072Z,27.41
2024-05-09T12:24:18.516Z,27.42
2024-05-09T12:25:17.145Z,27.41
2024-05-09T12:26:17.064Z,27.45
2024-05-09T12:27:17.072Z,27.44
2024-05-09T12:28:17.193Z,27.44
2024-05-09T12:29:17.121Z,27.44
2024-05-09T12:30:28.062Z,27.45
2024-05-09T12:31:18.247Z,27.42
2024-05-09T12:32:17.223Z,27.42
2024-05-09T12:33:17.345Z,27.42
2024-05-09T12:34:17.302Z,27.42
2024-05-09T12:35:17.229Z,27.42
2024-05-09T12:36:17.229Z,27.44
2024-05-09T12:37:17.352Z,27.41
2024-05-09T12:38:17.241Z,27.41
2024-05-09T12:39:17.292Z,27.42
2024-05-09T12:40:26.229Z,27.44
2024-05-09T12:41:18.404Z,27.44
2024-05-09T12:42:26.552Z,27.42
2024-05-09T12:43:18.471Z,27.42
2024-05-09T12:44:17.378Z,27.42
2024-05-09T12:45:17.407Z,27.42
2024-05-09T12:46:17.444Z,27.44
2024-05-09T12:47:17.438Z,27.42
2024-05-09T12:48:17.546Z,27.45
2024-05-09T12:49:19.167Z,27.45
2024-05-09T12:50:25.114Z,27.47
2024-05-09T12:51:18.468Z,27.47
2024-05-09T12:52:17.452Z,27.48
2024-05-09T12:53:17.463Z,27.49
2024-05-09T12:54:17.450Z,27.49
2024-05-09T12:55:17.688Z,27.52
2024-05-09T12:56:17.473Z,27.52